sensor_id;sensor_type;location;lat;lon;timestamp;pressure;altitude;pressure_sealevel;temperature;humidity
4858;BME280;58975;51.978;8.472;2024-03-08T00:00:13;100795.75;;;1.17;100.00
4858;BME280;58975;51.978;8.472;2024-03-08T00:05:13;100794.38;;;1.30;99.87
4858;BME280;58975;51.978;8.472;2024-03-08T00:10:12;100791.19;;;1.22;99.56
4858;BME280;58975;51.978;8.472;2024-03-08T00:15:14;100789.13;;;1.30;100.00
4858;BME280;58975;51.978;8.472;2024-03-08T00:20:13;100789.22;;;1.29;99.71
4858;BME280;58975;51.978;8.472;2024-03-08T00:25:11;100787.44;;;1.29;99.18
4858;BME280;58975;51.978;8.472;2024-03-08T00:30:08;100769.09;;;1.29;99.64
4858;BME280;58975;51.978;8.472;2024-03-08T00:35:06;100778.44;;;1.36;98.80
4858;BME280;58975;51.978;8.472;2024-03-08T00:40:06;100767.94;;;1.36;98.10
4858;BME280;58975;51.978;8.472;2024-03-08T00:45:05;100760.97;;;1.35;97.79
4858;BME280;58975;51.978;8.472;2024-03-08T00:50:02;100757.31;;;1.39;97.47
4858;BME280;58975;51.978;8.472;2024-03-08T00:55:02;100748.63;;;1.37;96.76
4858;BME280;58975;51.978;8.472;2024-03-08T00:59:58;100746.13;;;1.34;96.68
4858;BME280;58975;51.978;8.472;2024-03-08T01:04:54;100748.13;;;1.28;97.44
4858;BME280;58975;51.978;8.472;2024-03-08T01:09:51;100730.84;;;1.22;97.79
4858;BME280;58975;51.978;8.472;2024-03-08T01:14:48;100726.56;;;1.20;97.67
4858;BME280;58975;51.978;8.472;2024-03-08T01:19:45;100715.00;;;1.25;96.43
4858;BME280;58975;51.978;8.472;2024-03-08T01:24:41;100715.91;;;1.24;96.20
4858;BME280;58975;51.978;8.472;2024-03-08T01:29:38;100705.41;;;1.24;96.69
4858;BME280;58975;51.978;8.472;2024-03-08T01:34:35;100702.66;;;1.27;96.61
4858;BME280;58975;51.978;8.472;2024-03-08T01:39:32;100682.66;;;1.25;96.53
4858;BME280;58975;51.978;8.472;2024-03-08T01:44:28;100673.19;;;1.21;96.44
4858;BME280;58975;51.978;8.472;2024-03-08T01:49:27;100682.09;;;1.17;97.16
4858;BME280;58975;51.978;8.472;2024-03-08T01:54:24;100672.34;;;1.20;96.49
4858;BME280;58975;51.978;8.472;2024-03-08T01:59:20;100663.56;;;1.21;96.66
4858;BME280;58975;51.978;8.472;2024-03-08T02:04:17;100661.59;;;1.26;96.43
4858;BME280;58975;51.978;8.472;2024-03-08T02:09:13;100654.66;;;1.25;96.01
4858;BME280;58975;51.978;8.472;2024-03-08T02:14:10;100651.22;;;1.23;96.19
4858;BME280;58975;51.978;8.472;2024-03-08T02:19:07;100649.50;;;1.22;96.25
4858;BME280;58975;51.978;8.472;2024-03-08T02:24:06;100654.66;;;1.25;95.89
4858;BME280;58975;51.978;8.472;2024-03-08T02:29:02;100641.00;;;1.17;95.96
4858;BME280;58975;51.978;8.472;2024-03-08T02:33:59;100641.31;;;1.08;96.78
4858;BME280;58975;51.978;8.472;2024-03-08T02:38:55;100640.59;;;1.05;96.69
4858;BME280;58975;51.978;8.472;2024-03-08T02:43:52;100629.13;;;1.07;96.40
4858;BME280;58975;51.978;8.472;2024-03-08T02:48:48;100634.63;;;1.01;96.39
4858;BME280;58975;51.978;8.472;2024-03-08T02:53:45;100622.53;;;0.97;96.65
4858;BME280;58975;51.978;8.472;2024-03-08T02:58:45;100626.38;;;0.87;97.11
4858;BME280;58975;51.978;8.472;2024-03-08T03:03:44;100631.25;;;0.74;97.50
4858;BME280;58975;51.978;8.472;2024-03-08T03:08:43;100624.50;;;0.67;98.18
4858;BME280;58975;51.978;8.472;2024-03-08T03:13:42;100612.13;;;0.47;99.20
4858;BME280;58975;51.978;8.472;2024-03-08T03:18:44;100616.63;;;0.44;100.00
4858;BME280;58975;51.978;8.472;2024-03-08T03:23:41;100609.28;;;0.54;100.00
4858;BME280;58975;51.978;8.472;2024-03-08T03:28:41;100599.50;;;0.59;99.94
4858;BME280;58975;51.978;8.472;2024-03-08T03:33:37;100599.84;;;0.50;99.72
4858;BME280;58975;51.978;8.472;2024-03-08T03:38:34;100602.06;;;0.35;100.00
4858;BME280;58975;51.978;8.472;2024-03-08T03:43:31;100600.19;;;0.16;100.00
4858;BME280;58975;51.978;8.472;2024-03-08T03:48:27;100595.66;;;-0.06;100.00
4858;BME280;58975;51.978;8.472;2024-03-08T03:53:24;100595.50;;;-0.27;100.00
4858;BME280;58975;51.978;8.472;2024-03-08T03:58:22;100597.38;;;-0.31;100.00
4858;BME280;58975;51.978;8.472;2024-03-08T04:03:19;100594.00;;;-0.34;100.00
4858;BME280;58975;51.978;8.472;2024-03-08T04:08:15;100582.34;;;-0.51;100.00
4858;BME280;58975;51.978;8.472;2024-03-08T04:13:13;100585.66;;;-0.45;100.00
4858;BME280;58975;51.978;8.472;2024-03-08T04:18:11;100573.97;;;-0.62;100.00
4858;BME280;58975;51.978;8.472;2024-03-08T04:23:08;100575.69;;;-0.61;100.00
4858;BME280;58975;51.978;8.472;2024-03-08T04:28:05;100562.25;;;-0.50;100.00
4858;BME280;58975;51.978;8.472;2024-03-08T04:33:01;100556.84;;;-0.44;100.00
4858;BME280;58975;51.978;8.472;2024-03-08T04:38:00;100559.09;;;-0.33;100.00
4858;BME280;58975;51.978;8.472;2024-03-08T04:42:57;100547.66;;;-0.31;100.00
4858;BME280;58975;51.978;8.472;2024-03-08T04:47:54;100548.75;;;-0.36;100.00
4858;BME280;58975;51.978;8.472;2024-03-08T04:52:51;100542.44;;;-0.31;100.00
4858;BME280;58975;51.978;8.472;2024-03-08T04:57:48;100539.41;;;-0.43;100.00
4858;BME280;58975;51.978;8.472;2024-03-08T05:02:44;100526.38;;;-0.47;100.00
4858;BME280;58975;51.978;8.472;2024-03-08T05:07:41;100524.91;;;-0.54;100.00
4858;BME280;58975;51.978;8.472;2024-03-08T05:12:39;100516.59;;;-0.66;100.00
4858;BME280;58975;51.978;8.472;2024-03-08T05:17:36;100511.53;;;-0.71;100.00
4858;BME280;58975;51.978;8.472;2024-03-08T05:22:33;100515.84;;;-0.70;100.00
4858;BME280;58975;51.978;8.472;2024-03-08T05:27:29;100519.72;;;-0.81;100.00
4858;BME280;58975;51.978;8.472;2024-03-08T05:32:25;100510.19;;;-0.82;100.00
4858;BME280;58975;51.978;8.472;2024-03-08T05:37:26;100507.56;;;-0.82;100.00
4858;BME280;58975;51.978;8.472;2024-03-08T05:42:23;100505.59;;;-0.76;100.00
4858;BME280;58975;51.978;8.472;2024-03-08T05:47:19;100508.09;;;-0.73;100.00
4858;BME280;58975;51.978;8.472;2024-03-08T05:52:16;100504.59;;;-0.72;100.00
4858;BME280;58975;51.978;8.472;2024-03-08T05:57:12;100505.84;;;-0.83;100.00
4858;BME280;58975;51.978;8.472;2024-03-08T06:02:10;100509.22;;;-0.80;100.00
4858;BME280;58975;51.978;8.472;2024-03-08T06:07:06;100513.22;;;-0.70;100.00
4858;BME280;58975;51.978;8.472;2024-03-08T06:12:08;100505.78;;;-0.56;100.00
4858;BME280;58975;51.978;8.472;2024-03-08T06:17:07;100488.16;;;-0.51;100.00
4858;BME280;58975;51.978;8.472;2024-03-08T06:22:03;100495.41;;;-0.32;100.00
4858;BME280;58975;51.978;8.472;2024-03-08T06:27:02;100504.78;;;-0.02;100.00
4858;BME280;58975;51.978;8.472;2024-03-08T06:31:58;100508.06;;;0.28;100.00
4858;BME280;58975;51.978;8.472;2024-03-08T06:36:56;100503.06;;;0.67;100.00
4858;BME280;58975;51.978;8.472;2024-03-08T06:41:57;100481.53;;;0.82;100.00
4858;BME280;58975;51.978;8.472;2024-03-08T06:46:54;100489.94;;;1.12;100.00
4858;BME280;58975;51.978;8.472;2024-03-08T06:51:55;100480.47;;;1.29;100.00
4858;BME280;58975;51.978;8.472;2024-03-08T06:56:53;100482.97;;;1.32;100.00
4858;BME280;58975;51.978;8.472;2024-03-08T07:01:49;100483.31;;;1.45;100.00
4858;BME280;58975;51.978;8.472;2024-03-08T07:06:47;100477.00;;;1.49;99.74
4858;BME280;58975;51.978;8.472;2024-03-08T07:11:44;100478.38;;;1.58;98.71
4858;BME280;58975;51.978;8.472;2024-03-08T07:16:41;100484.97;;;1.68;98.39
4858;BME280;58975;51.978;8.472;2024-03-08T07:21:37;100475.38;;;1.87;96.78
4858;BME280;58975;51.978;8.472;2024-03-08T07:26:34;100482.19;;;2.11;96.12
4858;BME280;58975;51.978;8.472;2024-03-08T07:31:30;100469.97;;;2.29;94.20
4858;BME280;58975;51.978;8.472;2024-03-08T07:36:45;100472.09;;;2.39;92.95
4858;BME280;58975;51.978;8.472;2024-03-08T07:41:42;100461.38;;;2.63;92.21
4858;BME280;58975;51.978;8.472;2024-03-08T07:46:38;100453.34;;;2.84;90.76
4858;BME280;58975;51.978;8.472;2024-03-08T07:51:35;100449.09;;;2.99;89.19
4858;BME280;58975;51.978;8.472;2024-03-08T07:56:31;100450.22;;;3.12;88.79
4858;BME280;58975;51.978;8.472;2024-03-08T08:01:28;100440.47;;;3.31;87.95
4858;BME280;58975;51.978;8.472;2024-03-08T08:06:24;100433.06;;;3.40;86.55
4858;BME280;58975;51.978;8.472;2024-03-08T08:11:21;100439.47;;;3.51;85.96
4858;BME280;58975;51.978;8.472;2024-03-08T08:16:18;100418.09;;;3.57;85.03
4858;BME280;58975;51.978;8.472;2024-03-08T08:21:15;100426.06;;;3.73;85.38
4858;BME280;58975;51.978;8.472;2024-03-08T08:26:11;100425.28;;;3.88;84.53
4858;BME280;58975;51.978;8.472;2024-03-08T08:31:07;100413.63;;;3.92;83.74
4858;BME280;58975;51.978;8.472;2024-03-08T08:36:05;100407.13;;;4.15;82.83
4858;BME280;58975;51.978;8.472;2024-03-08T08:41:01;100408.13;;;4.12;82.03
4858;BME280;58975;51.978;8.472;2024-03-08T08:45:59;100409.44;;;4.37;82.27
4858;BME280;58975;51.978;8.472;2024-03-08T08:50:56;100400.00;;;4.64;80.85
4858;BME280;58975;51.978;8.472;2024-03-08T08:55:52;100396.59;;;4.93;80.65
4858;BME280;58975;51.978;8.472;2024-03-08T09:00:49;100391.13;;;4.96;79.52
4858;BME280;58975;51.978;8.472;2024-03-08T09:05:46;100384.53;;;5.03;79.18
4858;BME280;58975;51.978;8.472;2024-03-08T09:10:43;100372.81;;;5.23;79.36
4858;BME280;58975;51.978;8.472;2024-03-08T09:15:40;100366.34;;;5.29;78.08
4858;BME280;58975;51.978;8.472;2024-03-08T09:20:38;100367.13;;;5.45;77.90
4858;BME280;58975;51.978;8.472;2024-03-08T09:25:34;100354.66;;;5.33;76.99
4858;BME280;58975;51.978;8.472;2024-03-08T09:30:31;100349.00;;;5.53;77.83
4858;BME280;58975;51.978;8.472;2024-03-08T09:35:27;100349.53;;;6.02;78.19
4858;BME280;58975;51.978;8.472;2024-03-08T09:40:24;100321.06;;;6.19;76.21
4858;BME280;58975;51.978;8.472;2024-03-08T09:45:22;100310.84;;;6.28;74.83
4858;BME280;58975;51.978;8.472;2024-03-08T09:50:18;100295.84;;;6.55;74.91
4858;BME280;58975;51.978;8.472;2024-03-08T09:55:16;100285.16;;;6.56;72.97
4858;BME280;58975;51.978;8.472;2024-03-08T10:00:14;100281.88;;;6.26;73.21
4858;BME280;58975;51.978;8.472;2024-03-08T10:05:20;100282.53;;;6.30;73.22
4858;BME280;58975;51.978;8.472;2024-03-08T10:10:18;100268.22;;;6.59;72.27
4858;BME280;58975;51.978;8.472;2024-03-08T10:15:16;100266.59;;;6.83;72.06
4858;BME280;58975;51.978;8.472;2024-03-08T10:20:17;100232.19;;;6.83;70.47
4858;BME280;58975;51.978;8.472;2024-03-08T10:25:14;100234.22;;;6.92;70.65
4858;BME280;58975;51.978;8.472;2024-03-08T10:30:15;100227.88;;;7.07;70.69
4858;BME280;58975;51.978;8.472;2024-03-08T10:35:15;100220.34;;;7.27;69.77
4858;BME280;58975;51.978;8.472;2024-03-08T10:40:17;100219.56;;;7.50;70.39
4858;BME280;58975;51.978;8.472;2024-03-08T10:50:29;100193.03;;;7.75;67.10
4858;BME280;58975;51.978;8.472;2024-03-08T10:55:33;100197.72;;;7.72;67.20
4858;BME280;58975;51.978;8.472;2024-03-08T11:00:30;100187.13;;;7.59;67.26
4858;BME280;58975;51.978;8.472;2024-03-08T11:05:32;100182.22;;;7.66;67.67
4858;BME280;58975;51.978;8.472;2024-03-08T11:10:32;100179.84;;;7.86;67.31
4858;BME280;58975;51.978;8.472;2024-03-08T11:15:29;100168.38;;;7.86;66.67
4858;BME280;58975;51.978;8.472;2024-03-08T11:20:25;100159.50;;;7.87;66.51
4858;BME280;58975;51.978;8.472;2024-03-08T11:25:32;100149.41;;;7.92;66.67
4858;BME280;58975;51.978;8.472;2024-03-08T11:30:28;100139.00;;;7.89;66.53
4858;BME280;58975;51.978;8.472;2024-03-08T11:35:25;100140.31;;;8.07;66.04
4858;BME280;58975;51.978;8.472;2024-03-08T11:40:21;100122.53;;;7.96;64.58
4858;BME280;58975;51.978;8.472;2024-03-08T11:45:19;100112.09;;;8.06;65.58
4858;BME280;58975;51.978;8.472;2024-03-08T11:50:17;100119.56;;;8.36;67.24
4858;BME280;58975;51.978;8.472;2024-03-08T11:55:17;100115.56;;;8.65;67.96
4858;BME280;58975;51.978;8.472;2024-03-08T12:00:18;100086.22;;;8.67;66.04
4858;BME280;58975;51.978;8.472;2024-03-08T12:05:21;100099.88;;;8.62;67.67
4858;BME280;58975;51.978;8.472;2024-03-08T12:10:20;100080.69;;;8.81;66.36
4858;BME280;58975;51.978;8.472;2024-03-08T12:15:24;100076.22;;;8.81;65.86
4858;BME280;58975;51.978;8.472;2024-03-08T12:20:21;100065.13;;;8.76;67.23
4858;BME280;58975;51.978;8.472;2024-03-08T12:25:19;100055.94;;;8.69;66.82
4858;BME280;58975;51.978;8.472;2024-03-08T12:30:20;100052.78;;;8.53;65.66
4858;BME280;58975;51.978;8.472;2024-03-08T12:35:18;100032.50;;;8.41;64.98
4858;BME280;58975;51.978;8.472;2024-03-08T12:40:14;100032.66;;;8.73;65.13
4858;BME280;58975;51.978;8.472;2024-03-08T12:45:14;100003.34;;;8.85;64.75
4858;BME280;58975;51.978;8.472;2024-03-08T12:50:11;99995.59;;;8.82;63.77
4858;BME280;58975;51.978;8.472;2024-03-08T12:55:07;99988.09;;;8.87;61.79
4858;BME280;58975;51.978;8.472;2024-03-08T13:00:04;99991.09;;;8.94;63.06
4858;BME280;58975;51.978;8.472;2024-03-08T13:05:01;99982.75;;;9.10;62.67
4858;BME280;58975;51.978;8.472;2024-03-08T13:09:58;99967.25;;;9.26;62.35
4858;BME280;58975;51.978;8.472;2024-03-08T13:14:56;99974.31;;;9.16;63.64
4858;BME280;58975;51.978;8.472;2024-03-08T13:19:53;99953.69;;;9.08;63.75
4858;BME280;58975;51.978;8.472;2024-03-08T13:24:53;99949.00;;;9.00;62.88
4858;BME280;58975;51.978;8.472;2024-03-08T13:29:50;99945.97;;;8.94;63.53
4858;BME280;58975;51.978;8.472;2024-03-08T13:34:46;99940.53;;;8.95;63.56
4858;BME280;58975;51.978;8.472;2024-03-08T13:39:47;99939.84;;;8.93;63.35
4858;BME280;58975;51.978;8.472;2024-03-08T13:44:47;99924.81;;;9.03;63.73
4858;BME280;58975;51.978;8.472;2024-03-08T13:49:44;99933.00;;;9.12;64.43
4858;BME280;58975;51.978;8.472;2024-03-08T13:54:40;99919.09;;;9.19;64.43
4858;BME280;58975;51.978;8.472;2024-03-08T13:59:37;99912.69;;;9.22;64.74
4858;BME280;58975;51.978;8.472;2024-03-08T14:04:34;99905.53;;;9.01;64.22
4858;BME280;58975;51.978;8.472;2024-03-08T14:09:31;99886.84;;;8.92;63.99
4858;BME280;58975;51.978;8.472;2024-03-08T14:14:27;99885.94;;;9.02;64.52
4858;BME280;58975;51.978;8.472;2024-03-08T14:19:24;99873.84;;;9.10;64.83
4858;BME280;58975;51.978;8.472;2024-03-08T14:24:20;99876.50;;;9.10;64.93
4858;BME280;58975;51.978;8.472;2024-03-08T14:29:17;99866.56;;;9.23;64.57
4858;BME280;58975;51.978;8.472;2024-03-08T14:34:17;99859.06;;;9.48;63.92
4858;BME280;58975;51.978;8.472;2024-03-08T14:39:13;99856.66;;;9.66;64.72
4858;BME280;58975;51.978;8.472;2024-03-08T14:44:10;99825.59;;;9.46;61.22
4858;BME280;58975;51.978;8.472;2024-03-08T14:49:06;99814.84;;;9.27;60.30
4858;BME280;58975;51.978;8.472;2024-03-08T14:54:03;99809.25;;;9.30;60.51
4858;BME280;58975;51.978;8.472;2024-03-08T14:59:02;99786.66;;;9.35;60.38
4858;BME280;58975;51.978;8.472;2024-03-08T15:04:02;99802.97;;;9.31;61.57
4858;BME280;58975;51.978;8.472;2024-03-08T15:09:07;99805.97;;;9.17;61.43
4858;BME280;58975;51.978;8.472;2024-03-08T15:14:08;99786.59;;;9.05;61.49
4858;BME280;58975;51.978;8.472;2024-03-08T15:19:08;99789.25;;;9.05;61.74
4858;BME280;58975;51.978;8.472;2024-03-08T15:24:05;99772.75;;;9.01;60.93
4858;BME280;58975;51.978;8.472;2024-03-08T15:29:06;99782.91;;;8.96;61.19
4858;BME280;58975;51.978;8.472;2024-03-08T15:34:03;99768.38;;;9.00;61.64
4858;BME280;58975;51.978;8.472;2024-03-08T15:39:03;99759.69;;;8.78;61.91
4858;BME280;58975;51.978;8.472;2024-03-08T15:44:07;99765.00;;;8.78;61.98
4858;BME280;58975;51.978;8.472;2024-03-08T15:49:03;99769.69;;;8.74;62.63
4858;BME280;58975;51.978;8.472;2024-03-08T15:54:02;99758.00;;;8.77;62.82
4858;BME280;58975;51.978;8.472;2024-03-08T15:59:00;99763.22;;;8.67;63.03
4858;BME280;58975;51.978;8.472;2024-03-08T16:04:02;99756.47;;;8.63;62.42
4858;BME280;58975;51.978;8.472;2024-03-08T16:09:00;99754.34;;;8.57;63.50
4858;BME280;58975;51.978;8.472;2024-03-08T16:13:57;99749.06;;;8.46;63.94
4858;BME280;58975;51.978;8.472;2024-03-08T16:18:54;99753.91;;;8.41;64.45
4858;BME280;58975;51.978;8.472;2024-03-08T16:23:50;99746.06;;;8.28;65.15
4858;BME280;58975;51.978;8.472;2024-03-08T16:28:49;99751.19;;;8.09;65.67
4858;BME280;58975;51.978;8.472;2024-03-08T16:33:46;99748.41;;;8.11;65.84
4858;BME280;58975;51.978;8.472;2024-03-08T16:38:43;99746.25;;;8.04;66.12
4858;BME280;58975;51.978;8.472;2024-03-08T16:43:42;99751.31;;;8.62;65.48
4858;BME280;58975;51.978;8.472;2024-03-08T16:48:40;99739.44;;;9.79;62.36
4858;BME280;58975;51.978;8.472;2024-03-08T16:53:37;99739.78;;;8.40;64.70
4858;BME280;58975;51.978;8.472;2024-03-08T16:58:38;99733.03;;;7.49;67.78
4858;BME280;58975;51.978;8.472;2024-03-08T17:03:38;99748.66;;;7.19;69.35
4858;BME280;58975;51.978;8.472;2024-03-08T17:08:51;99755.13;;;7.03;70.03
4858;BME280;58975;51.978;8.472;2024-03-08T17:13:48;99761.66;;;6.76;70.90
4858;BME280;58975;51.978;8.472;2024-03-08T17:18:45;99757.88;;;6.67;71.65
4858;BME280;58975;51.978;8.472;2024-03-08T17:23:41;99759.16;;;6.50;72.21
4858;BME280;58975;51.978;8.472;2024-03-08T17:28:38;99765.84;;;6.43;72.66
4858;BME280;58975;51.978;8.472;2024-03-08T17:33:38;99768.84;;;6.39;73.06
4858;BME280;58975;51.978;8.472;2024-03-08T17:38:38;99766.63;;;6.33;73.50
4858;BME280;58975;51.978;8.472;2024-03-08T17:43:45;99768.97;;;6.25;73.70
4858;BME280;58975;51.978;8.472;2024-03-08T17:48:42;99762.97;;;6.23;74.10
4858;BME280;58975;51.978;8.472;2024-03-08T17:53:39;99772.50;;;6.12;74.73
4858;BME280;58975;51.978;8.472;2024-03-08T17:58:36;99756.88;;;6.09;74.83
4858;BME280;58975;51.978;8.472;2024-03-08T18:03:32;99765.25;;;6.03;75.29
4858;BME280;58975;51.978;8.472;2024-03-08T18:08:29;99763.03;;;5.97;76.23
4858;BME280;58975;51.978;8.472;2024-03-08T18:13:25;99755.50;;;6.04;75.72
4858;BME280;58975;51.978;8.472;2024-03-08T18:18:23;99748.88;;;5.98;76.04
4858;BME280;58975;51.978;8.472;2024-03-08T18:23:19;99757.13;;;5.94;76.24
4858;BME280;58975;51.978;8.472;2024-03-08T18:28:19;99755.91;;;5.87;76.22
4858;BME280;58975;51.978;8.472;2024-03-08T18:33:17;99748.50;;;5.92;75.95
4858;BME280;58975;51.978;8.472;2024-03-08T18:38:14;99745.72;;;5.93;76.32
4858;BME280;58975;51.978;8.472;2024-03-08T18:43:11;99736.31;;;5.89;76.38
4858;BME280;58975;51.978;8.472;2024-03-08T18:48:07;99738.53;;;5.83;76.48
4858;BME280;58975;51.978;8.472;2024-03-08T18:53:04;99734.53;;;5.90;76.08
4858;BME280;58975;51.978;8.472;2024-03-08T18:58:03;99737.28;;;5.76;76.94
4858;BME280;58975;51.978;8.472;2024-03-08T19:03:00;99740.03;;;5.61;76.96
4858;BME280;58975;51.978;8.472;2024-03-08T19:07:59;99743.66;;;5.35;78.03
4858;BME280;58975;51.978;8.472;2024-03-08T19:12:58;99738.59;;;5.19;79.48
4858;BME280;58975;51.978;8.472;2024-03-08T19:18:01;99742.00;;;5.09;80.53
4858;BME280;58975;51.978;8.472;2024-03-08T19:23:02;99730.88;;;4.91;81.57
4858;BME280;58975;51.978;8.472;2024-03-08T19:27:59;99732.03;;;4.87;82.11
4858;BME280;58975;51.978;8.472;2024-03-08T19:32:57;99737.28;;;4.74;82.78
4858;BME280;58975;51.978;8.472;2024-03-08T19:37:56;99729.25;;;4.51;84.63
4858;BME280;58975;51.978;8.472;2024-03-08T19:42:55;99731.72;;;4.40;85.68
4858;BME280;58975;51.978;8.472;2024-03-08T19:47:53;99727.25;;;4.27;87.20
4858;BME280;58975;51.978;8.472;2024-03-08T19:52:51;99720.81;;;4.19;88.24
4858;BME280;58975;51.978;8.472;2024-03-08T19:57:49;99720.41;;;4.25;88.87
4858;BME280;58975;51.978;8.472;2024-03-08T20:02:48;99717.75;;;4.25;90.02
4858;BME280;58975;51.978;8.472;2024-03-08T20:07:45;99713.06;;;4.03;89.89
4858;BME280;58975;51.978;8.472;2024-03-08T20:12:42;99718.34;;;3.89;91.30
4858;BME280;58975;51.978;8.472;2024-03-08T20:17:41;99712.91;;;3.78;93.76
4858;BME280;58975;51.978;8.472;2024-03-08T20:22:37;99708.22;;;3.83;95.02
4858;BME280;58975;51.978;8.472;2024-03-08T20:27:34;99706.34;;;3.71;94.91
4858;BME280;58975;51.978;8.472;2024-03-08T20:32:34;99697.88;;;3.66;95.41
4858;BME280;58975;51.978;8.472;2024-03-08T20:37:31;99690.41;;;3.60;96.64
4858;BME280;58975;51.978;8.472;2024-03-08T20:42:27;99688.97;;;3.54;96.98
4858;BME280;58975;51.978;8.472;2024-03-08T20:47:24;99686.47;;;3.53;98.50
4858;BME280;58975;51.978;8.472;2024-03-08T20:52:20;99677.59;;;3.54;98.63
4858;BME280;58975;51.978;8.472;2024-03-08T20:57:18;99668.84;;;3.67;97.92
4858;BME280;58975;51.978;8.472;2024-03-08T21:02:14;99666.88;;;3.57;98.20
4858;BME280;58975;51.978;8.472;2024-03-08T21:07:12;99658.69;;;3.61;99.42
4858;BME280;58975;51.978;8.472;2024-03-08T21:12:09;99656.53;;;3.68;99.52
4858;BME280;58975;51.978;8.472;2024-03-08T21:17:07;99639.81;;;3.55;99.08
4858;BME280;58975;51.978;8.472;2024-03-08T21:22:04;99641.44;;;3.43;99.85
4858;BME280;58975;51.978;8.472;2024-03-08T21:27:00;99638.72;;;3.45;100.00
4858;BME280;58975;51.978;8.472;2024-03-08T21:31:57;99626.16;;;3.21;100.00
4858;BME280;58975;51.978;8.472;2024-03-08T21:36:53;99626.69;;;3.41;100.00
4858;BME280;58975;51.978;8.472;2024-03-08T21:41:53;99617.06;;;3.54;100.00
4858;BME280;58975;51.978;8.472;2024-03-08T21:46:50;99618.66;;;3.56;100.00
4858;BME280;58975;51.978;8.472;2024-03-08T21:51:47;99611.91;;;3.38;100.00
4858;BME280;58975;51.978;8.472;2024-03-08T21:56:43;99603.81;;;3.55;100.00
4858;BME280;58975;51.978;8.472;2024-03-08T22:01:40;99610.28;;;3.64;100.00
4858;BME280;58975;51.978;8.472;2024-03-08T22:06:38;99595.25;;;3.78;100.00
4858;BME280;58975;51.978;8.472;2024-03-08T22:11:36;99605.06;;;3.89;99.99
4858;BME280;58975;51.978;8.472;2024-03-08T22:16:33;99605.28;;;3.86;99.35
4858;BME280;58975;51.978;8.472;2024-03-08T22:21:31;99599.59;;;3.79;99.54
4858;BME280;58975;51.978;8.472;2024-03-08T22:26:29;99596.66;;;3.84;99.20
4858;BME280;58975;51.978;8.472;2024-03-08T22:31:25;99596.69;;;3.70;99.30
4858;BME280;58975;51.978;8.472;2024-03-08T22:36:22;99603.66;;;3.71;100.00
4858;BME280;58975;51.978;8.472;2024-03-08T22:41:19;99602.38;;;3.64;99.29
4858;BME280;58975;51.978;8.472;2024-03-08T22:46:16;99608.06;;;3.44;99.84
4858;BME280;58975;51.978;8.472;2024-03-08T22:51:12;99599.25;;;3.30;100.00
4858;BME280;58975;51.978;8.472;2024-03-08T22:56:11;99604.09;;;3.51;100.00
4858;BME280;58975;51.978;8.472;2024-03-08T23:01:08;99601.53;;;3.49;100.00
4858;BME280;58975;51.978;8.472;2024-03-08T23:06:05;99601.16;;;3.28;100.00
4858;BME280;58975;51.978;8.472;2024-03-08T23:11:08;99591.19;;;3.19;100.00
4858;BME280;58975;51.978;8.472;2024-03-08T23:16:08;99604.00;;;3.11;100.00
4858;BME280;58975;51.978;8.472;2024-03-08T23:21:05;99601.16;;;3.14;100.00
4858;BME280;58975;51.978;8.472;2024-03-08T23:26:05;99596.34;;;3.35;100.00
4858;BME280;58975;51.978;8.472;2024-03-08T23:31:03;99597.13;;;3.50;100.00
4858;BME280;58975;51.978;8.472;2024-03-08T23:36:03;99586.59;;;3.50;100.00
4858;BME280;58975;51.978;8.472;2024-03-08T23:41:04;99590.19;;;3.49;100.00
4858;BME280;58975;51.978;8.472;2024-03-08T23:46:00;99588.75;;;3.57;100.00
4858;BME280;58975;51.978;8.472;2024-03-08T23:50:57;99591.56;;;3.54;100.00
4858;BME280;58975;51.978;8.472;2024-03-08T23:55:55;99595.06;;;3.55;100.00
